Time;durP1;ratioP1;P1;durP2;ratioP2;P2;SDS_P1;SDS_P2;PMS_P1;PMS_P2;Temp;Humidity;BMP_temperature;BMP_pressure;BME280_temperature;BME280_humidity;BME280_pressure;Samples;Min_cycle;Max_cycle;Signal;HPM_P1;HPM_P2
2022/01/16 00:06:46;;;;;;;4.60;2.37;;;11.80;58.40;;;;;;20651841;28;20841;-77
2022/01/16 00:16:46;;;;;;;4.43;2.10;;;11.80;58.40;;;;;;20651042;28;20301;-78
2022/01/16 00:26:47;;;;;;;3.53;1.92;;;11.80;58.30;;;;;;20634239;28;20030;-78
2022/01/16 00:36:48;;;;;;;5.13;2.05;;;11.80;58.30;;;;;;20649060;28;20039;-78
2022/01/16 00:46:48;;;;;;;4.00;2.05;;;11.80;58.30;;;;;;20648902;28;20039;-79
2022/01/16 00:56:49;;;;;;;3.95;2.08;;;11.80;58.20;;;;;;20665345;28;20037;-78
2022/01/16 01:06:51;;;;;;;4.47;2.75;;;11.80;58.20;;;;;;20664221;28;20038;-79
2022/01/16 01:16:57;;;;;;;4.18;2.47;;;11.80;58.10;;;;;;20683480;28;20038;-78
2022/01/16 01:27:13;;;;;;;4.10;2.20;;;11.80;58.00;;;;;;20727882;28;20034;-78
2022/01/16 01:37:13;;;;;;;5.28;3.13;;;11.80;58.00;;;;;;20730613;28;20087;-78
2022/01/16 01:57:33;;;;;;;3.00;2.03;;;11.80;58.00;;;;;;20760791;28;20045;-77
2022/01/16 02:07:33;;;;;;;3.22;2.10;;;11.70;57.90;;;;;;20758687;28;20042;-77
2022/01/16 02:28:07;;;;;;;4.95;2.90;;;11.70;57.90;;;;;;20757257;28;20038;-79
2022/01/16 02:38:10;;;;;;;4.13;2.55;;;11.70;57.80;;;;;;20726058;28;20041;-79
2022/01/16 02:48:11;;;;;;;5.85;2.78;;;11.70;57.80;;;;;;20722751;28;20085;-78
2022/01/16 02:58:12;;;;;;;5.53;2.58;;;11.70;57.80;;;;;;20721403;28;20048;-77
2022/01/16 03:08:12;;;;;;;7.57;2.60;;;11.70;57.70;;;;;;20737667;28;20046;-77
2022/01/16 03:28:14;;;;;;;3.97;2.53;;;11.60;57.70;;;;;;20756027;28;20114;-78
2022/01/16 03:38:14;;;;;;;4.28;2.17;;;11.60;57.80;;;;;;20762285;28;20034;-78
2022/01/16 03:48:15;;;;;;;4.30;2.28;;;11.50;57.90;;;;;;20718185;28;20416;-78
2022/01/16 03:58:16;;;;;;;3.47;2.45;;;11.50;58.00;;;;;;20733857;28;20076;-78
2022/01/16 04:08:16;;;;;;;5.95;2.42;;;11.40;58.20;;;;;;20733784;28;20479;-78
2022/01/16 04:18:17;;;;;;;4.55;2.50;;;11.30;58.30;;;;;;20714982;28;20419;-78
2022/01/16 04:28:23;;;;;;;4.15;2.08;;;11.30;58.50;;;;;;20731520;28;20030;-79
2022/01/16 04:38:23;;;;;;;5.55;2.85;;;11.20;58.60;;;;;;20731809;28;20169;-78
2022/01/16 04:48:24;;;;;;;5.30;2.92;;;11.10;58.80;;;;;;20714891;28;20084;-78
2022/01/16 04:58:25;;;;;;;4.30;2.30;;;11.00;59.00;;;;;;20729430;28;20046;-77
2022/01/16 05:08:25;;;;;;;3.45;2.08;;;10.90;59.20;;;;;;20745615;28;20391;-80
2022/01/16 05:18:26;;;;;;;4.17;2.60;;;11.10;59.00;;;;;;20712036;28;20046;-78
2022/01/16 05:28:27;;;;;;;4.67;2.80;;;12.00;57.10;;;;;;20727972;28;20293;-78
2022/01/16 05:38:28;;;;;;;4.65;2.30;;;13.00;54.70;;;;;;20711090;28;20843;-78
2022/01/16 05:48:28;;;;;;;5.35;2.75;;;13.80;52.70;;;;;;20741633;28;20132;-80
2022/01/16 05:58:29;;;;;;;6.43;3.20;;;14.60;50.90;;;;;;20825250;28;20033;-79
2022/01/16 06:08:29;;;;;;;4.18;2.80;;;15.00;49.60;;;;;;20791149;28;20291;-78
2022/01/16 06:18:30;;;;;;;3.73;2.47;;;15.10;49.00;;;;;;20790940;28;20545;-78
2022/01/16 06:28:31;;;;;;;5.32;3.00;;;15.10;48.70;;;;;;20823269;28;20379;-78
2022/01/16 06:38:31;;;;;;;4.00;2.63;;;14.90;48.80;;;;;;20816248;28;20033;-78
2022/01/16 06:48:32;;;;;;;5.00;2.83;;;14.20;50.00;;;;;;20837413;28;20526;-78
2022/01/16 06:58:33;;;;;;;4.78;3.00;;;13.40;51.40;;;;;;20837179;28;20296;-78
2022/01/16 07:08:33;;;;;;;6.07;2.80;;;12.80;52.70;;;;;;20803438;28;20034;-77
2022/01/16 07:18:34;;;;;;;3.50;2.57;;;12.40;53.90;;;;;;20787871;28;20038;-77
2022/01/16 07:28:34;;;;;;;4.13;2.22;;;12.00;55.00;;;;;;20811470;28;20302;-79
2022/01/16 07:38:35;;;;;;;4.13;2.72;;;11.80;55.70;;;;;;20762883;28;20038;-78
2022/01/16 07:48:36;;;;;;;5.00;2.90;;;11.60;56.20;;;;;;20737743;28;20041;-79
2022/01/16 07:58:36;;;;;;;4.37;2.87;;;11.50;56.50;;;;;;20721865;28;20699;-80
2022/01/16 08:08:37;;;;;;;5.87;3.00;;;11.50;56.80;;;;;;20718273;28;20289;-81
2022/01/16 08:18:38;;;;;;;5.88;3.30;;;11.50;56.90;;;;;;20725392;28;20292;-75
2022/01/16 08:28:38;;;;;;;6.47;3.75;;;11.40;56.90;;;;;;20732060;28;20435;-75
2022/01/16 08:38:39;;;;;;;6.57;3.28;;;11.50;57.00;;;;;;20715042;28;20503;-79
2022/01/16 08:48:39;;;;;;;8.03;3.53;;;11.40;57.10;;;;;;20711911;28;20041;-75
2022/01/16 08:58:40;;;;;;;5.70;3.72;;;11.40;57.30;;;;;;20782454;28;20288;-77
2022/01/16 09:08:41;;;;;;;7.88;3.15;;;11.40;57.40;;;;;;20796371;28;20514;-76
2022/01/16 09:18:42;;;;;;;6.72;3.92;;;11.30;57.50;;;;;;20790790;28;20034;-76
2022/01/16 09:28:43;;;;;;;8.20;4.00;;;11.30;57.70;;;;;;20713693;28;20053;-74
2022/01/16 09:38:44;;;;;;;7.55;4.05;;;11.30;57.80;;;;;;20728513;28;20139;-75
2022/01/16 09:48:44;;;;;;;9.45;6.07;;;11.20;57.90;;;;;;20726996;28;20500;-74
2022/01/16 09:58:46;;;;;;;20.02;6.20;;;11.20;58.00;;;;;;20726123;28;20500;-77
2022/01/16 10:08:48;;;;;;;10.10;5.22;;;11.30;58.00;;;;;;20697582;28;20128;-77
2022/01/16 10:18:48;;;;;;;16.67;6.05;;;11.20;58.00;;;;;;20725603;28;20069;-78
2022/01/16 10:28:50;;;;;;;15.02;5.68;;;11.30;58.30;;;;;;20710364;28;20093;-77
2022/01/16 10:39:07;;;;;;;11.15;6.32;;;11.30;58.30;;;;;;20708389;28;20069;-78
2022/01/16 10:49:15;;;;;;;10.40;5.97;;;11.30;58.50;;;;;;20720499;28;20045;-75
2022/01/16 10:59:22;;;;;;;13.15;6.57;;;11.20;58.60;;;;;;20737749;28;20049;-73
2022/01/16 11:09:27;;;;;;;12.52;6.43;;;11.20;58.70;;;;;;20720610;28;20621;-76
2022/01/16 11:19:31;;;;;;;15.45;7.55;;;11.50;58.40;;;;;;20728014;28;20048;-81
2022/01/16 11:29:33;;;;;;;12.43;7.30;;;12.50;56.50;;;;;;20812963;28;20044;-75
2022/01/16 11:39:35;;;;;;;16.52;7.40;;;13.30;54.40;;;;;;21248475;22;20054;-77
2022/01/16 11:49:41;;;;;;;14.13;6.57;;;14.00;52.60;;;;;;20652960;28;20389;-79
2022/01/16 11:59:41;;;;;;;12.33;6.47;;;14.60;51.10;;;;;;20622681;28;20053;-78
2022/01/16 12:19:46;;;;;;;13.50;7.18;;;15.00;49.60;;;;;;20653224;28;20045;-74
2022/01/16 12:30:14;;;;;;;11.75;6.45;;;15.00;49.50;;;;;;20636351;28;20417;-79
2022/01/16 12:40:19;;;;;;;12.75;7.40;;;14.70;49.70;;;;;;20647898;28;20050;-79
2022/01/16 12:50:20;;;;;;;11.10;6.60;;;14.00;51.10;;;;;;20570766;28;20476;-77
2022/01/16 13:00:21;;;;;;;11.55;6.75;;;13.40;52.60;;;;;;20584901;28;20049;-78
2022/01/16 13:10:21;;;;;;;15.65;8.15;;;12.80;53.80;;;;;;20568308;28;20117;-75
2022/01/16 13:20:25;;;;;;;12.05;6.68;;;12.40;54.90;;;;;;20567364;28;20070;-76
2022/01/16 13:30:28;;;;;;;14.05;6.72;;;12.10;55.90;;;;;;20550879;28;20049;-76
2022/01/16 13:40:30;;;;;;;14.60;7.60;;;11.90;56.60;;;;;;20582926;28;20492;-76
2022/01/16 13:50:50;;;;;;;15.88;8.23;;;11.80;57.10;;;;;;20638584;28;20657;-76
2022/01/16 14:00:54;;;;;;;15.70;8.63;;;11.80;57.40;;;;;;20670671;28;20050;-75
2022/01/16 14:11:07;;;;;;;16.98;8.27;;;11.80;57.70;;;;;;20654239;28;20038;-80
2022/01/16 14:31:27;;;;;;;15.95;8.95;;;11.90;57.80;;;;;;20687189;28;20034;-75
2022/01/16 14:41:27;;;;;;;17.00;8.35;;;11.80;57.90;;;;;;20670996;28;20048;-75
2022/01/16 14:51:28;;;;;;;17.35;8.18;;;11.80;58.00;;;;;;20637221;28;20061;-75
2022/01/16 15:01:28;;;;;;;12.57;7.97;;;11.80;58.20;;;;;;20640554;28;20297;-75
2022/01/16 15:11:29;;;;;;;19.13;8.10;;;11.70;58.40;;;;;;20623862;28;20030;-75
2022/01/16 15:21:33;;;;;;;15.32;8.38;;;11.70;58.60;;;;;;20622568;28;20050;-75
2022/01/16 15:31:33;;;;;;;19.45;9.32;;;11.70;58.80;;;;;;20678518;28;20408;-74
2022/01/16 15:41:34;;;;;;;14.48;9.00;;;11.60;59.00;;;;;;20660818;28;20042;-75
2022/01/16 15:51:34;;;;;;;17.60;8.95;;;12.20;58.30;;;;;;20637835;28;20038;-74
2022/01/16 16:01:35;;;;;;;15.45;8.60;;;13.00;56.20;;;;;;20620830;28;20053;-74
2022/01/16 16:11:36;;;;;;;16.17;8.75;;;13.90;54.40;;;;;;20636663;28;20053;-76
2022/01/16 16:21:36;;;;;;;15.43;8.45;;;14.40;52.70;;;;;;20626150;28;20082;-75
2022/01/16 16:31:37;;;;;;;14.18;7.32;;;14.80;51.70;;;;;;20615156;28;20107;-77
2022/01/16 16:41:44;;;;;;;16.05;7.60;;;14.90;51.20;;;;;;20637652;28;20129;-77
2022/01/16 16:51:45;;;;;;;15.77;8.60;;;14.90;51.10;;;;;;20634130;28;20034;-76
2022/01/16 17:01:45;;;;;;;11.50;7.28;;;14.80;51.10;;;;;;20650332;28;20034;-79
2022/01/16 17:11:46;;;;;;;14.57;8.52;;;14.80;51.10;;;;;;20635958;28;20035;-81
2022/01/16 17:21:46;;;;;;;14.63;7.60;;;14.30;51.80;;;;;;20616177;28;20042;-78
2022/01/16 17:31:47;;;;;;;14.88;7.47;;;13.60;53.20;;;;;;20613059;28;20031;-76
2022/01/16 17:41:48;;;;;;;11.32;5.97;;;13.00;54.60;;;;;;20631433;28;20050;-78
2022/01/16 17:51:48;;;;;;;11.02;6.85;;;12.50;55.80;;;;;;20631843;28;20082;-79
2022/01/16 18:01:49;;;;;;;10.00;6.10;;;12.20;56.80;;;;;;20662079;28;20045;-79
2022/01/16 18:11:50;;;;;;;11.88;6.75;;;11.90;57.60;;;;;;20569808;28;20058;-79
2022/01/16 18:21:51;;;;;;;11.77;5.85;;;11.70;58.20;;;;;;20564535;28;20612;-77
2022/01/16 18:31:51;;;;;;;10.93;6.50;;;11.60;58.80;;;;;;20575251;28;20045;-80
2022/01/16 18:41:53;;;;;;;8.80;5.50;;;11.60;59.10;;;;;;20653164;28;20046;-78
2022/01/16 18:51:53;;;;;;;9.18;5.45;;;11.60;59.10;;;;;;20643457;28;20070;-77
2022/01/16 19:01:55;;;;;;;9.80;5.30;;;11.60;59.10;;;;;;20674569;28;20194;-78
2022/01/16 19:11:55;;;;;;;11.70;6.72;;;11.70;59.20;;;;;;20641208;28;20022;-78
2022/01/16 19:21:58;;;;;;;11.13;6.18;;;11.70;59.20;;;;;;20619721;28;20037;-78
2022/01/16 19:31:59;;;;;;;9.77;5.03;;;11.70;59.30;;;;;;20645776;28;20038;-78
2022/01/16 19:42:06;;;;;;;12.30;6.85;;;11.70;59.40;;;;;;20638666;28;20042;-78
2022/01/16 19:52:07;;;;;;;;;;;11.70;59.50;;;;;;20624707;28;20523;-79
2022/01/16 20:02:08;;;;;;;11.50;5.97;;;11.70;59.60;;;;;;20595882;28;19918;-79
2022/01/16 20:12:09;;;;;;;14.27;8.20;;;11.70;59.60;;;;;;20604681;28;20077;-80
2022/01/16 20:22:10;;;;;;;10.57;6.53;;;11.70;59.70;;;;;;20574348;28;20038;-79
2022/01/16 20:32:10;;;;;;;12.85;6.68;;;11.70;59.90;;;;;;20576592;28;20023;-79
2022/01/16 20:42:11;;;;;;;12.35;7.75;;;11.70;59.90;;;;;;20564731;28;20185;-79
2022/01/16 20:52:16;;;;;;;16.10;8.27;;;11.70;60.00;;;;;;20599771;28;20032;-79
2022/01/16 21:02:17;;;;;;;11.77;7.03;;;11.70;60.10;;;;;;20574137;28;20036;-80
2022/01/16 21:12:18;;;;;;;14.13;6.93;;;11.70;60.20;;;;;;20576449;28;20054;-79
2022/01/16 21:22:18;;;;;;;12.25;6.88;;;11.70;60.30;;;;;;20615879;28;20033;-79
2022/01/16 21:32:19;;;;;;;13.02;7.43;;;11.70;60.30;;;;;;20594354;28;20030;-80
2022/01/16 21:42:21;;;;;;;14.75;7.60;;;11.70;60.50;;;;;;20581054;28;20081;-79
2022/01/16 21:52:22;;;;;;;15.43;7.78;;;11.70;60.60;;;;;;20581540;28;20038;-79
2022/01/16 22:02:22;;;;;;;12.10;6.70;;;11.60;60.70;;;;;;20627752;28;20553;-80
2022/01/16 22:12:25;;;;;;;16.83;8.40;;;11.60;61.00;;;;;;20682897;28;20465;-79
2022/01/16 22:22:26;;;;;;;13.75;6.93;;;11.60;61.10;;;;;;20663996;28;20392;-79
2022/01/16 22:32:26;;;;;;;12.57;7.37;;;11.60;61.30;;;;;;20680988;28;20030;-78
2022/01/16 22:42:27;;;;;;;15.32;7.38;;;11.60;61.50;;;;;;20646242;28;20790;-78
2022/01/16 22:52:28;;;;;;;12.25;5.95;;;11.60;61.60;;;;;;20646903;28;20480;-79
2022/01/16 23:02:29;;;;;;;9.05;5.13;;;11.60;61.70;;;;;;20660635;28;20026;-79
2022/01/16 23:12:29;;;;;;;11.35;5.55;;;11.60;61.80;;;;;;20659905;28;20097;-79
2022/01/16 23:22:30;;;;;;;10.88;5.38;;;11.60;62.50;;;;;;20658001;28;20429;-79
2022/01/16 23:32:35;;;;;;;11.00;5.25;;;11.60;61.80;;;;;;20643645;28;20076;-79
2022/01/16 23:42:39;;;;;;;10.02;4.68;;;11.60;61.90;;;;;;20658762;28;20404;-79
2022/01/16 23:52:39;;;;;;;10.27;4.35;;;11.50;61.90;;;;;;20658471;28;20464;-80
